Mount Shasta, California
Current Conditions -  °F | °C
As of 1:56 PM on Sunday 25 Jan 2015 (Local Time) from KMHS Reporting Station
Clear Clear  
Wind Chill: 65°   Ceiling: Unl
Heat Index: 65°   Visibility: 10mi
Dew Point: 41°   Wind: 5mph
Humidity: 42%   Direction: 300°WNW
Pressure: 30.18"   Gusts: NA
Location:  41.31°N, 122.31°W
Report Text: KMHS 252156Z AUTO 30004KT 10SM CLR 18/05 A3018 RMK AO2 SLP232 T01830050
Loading
Personal Weather Stations






























Interactive Weather Map New forecast layout! Learn more

10-Day Weather Forecast

Advertisements
Track Severe Weather on mobile